createdAt,value
2019-02-15T00:00:33.415Z,19.97
2019-02-15T00:03:03.344Z,19.77
2019-02-15T00:05:32.636Z,21.13
2019-02-15T00:08:02.046Z,18.27
2019-02-15T00:10:31.443Z,15.37
2019-02-15T00:13:00.863Z,23.30
2019-02-15T00:15:30.187Z,18.43
2019-02-15T00:18:18.562Z,18.13
2019-02-15T00:21:10.006Z,16.33
2019-02-15T00:23:39.423Z,15.83
2019-02-15T00:26:08.918Z,18.47
2019-02-15T00:28:38.288Z,16.47
2019-02-15T00:31:09.129Z,15.93
2019-02-15T00:33:38.556Z,15.97
2019-02-15T00:36:07.905Z,16.90
2019-02-15T00:38:37.247Z,16.47
2019-02-15T00:41:06.658Z,16.17
2019-02-15T00:43:36.099Z,17.63
2019-02-15T00:46:15.266Z,18.23
2019-02-15T00:48:44.741Z,16.70
2019-02-15T00:51:39.073Z,19.93
2019-02-15T00:54:26.053Z,19.37
2019-02-15T00:57:23.438Z,22.80
2019-02-15T01:00:15.224Z,21.90
2019-02-15T01:02:54.923Z,22.40
2019-02-15T01:05:43.227Z,19.87
2019-02-15T01:08:37.347Z,21.50
2019-02-15T01:11:17.949Z,24.50
2019-02-15T01:13:47.394Z,25.17
2019-02-15T01:16:16.785Z,26.17
2019-02-15T01:18:46.211Z,23.73
2019-02-15T01:21:15.586Z,24.37
2019-02-15T01:23:44.975Z,26.40
2019-02-15T01:26:31.917Z,24.23
2019-02-15T01:29:12.640Z,22.73
2019-02-15T01:32:00.892Z,26.03
2019-02-15T01:34:41.220Z,23.07
2019-02-15T01:37:24.665Z,27.77
2019-02-15T01:40:07.916Z,25.03
2019-02-15T01:42:54.856Z,24.33
2019-02-15T01:45:28.495Z,22.47
2019-02-15T01:47:57.927Z,20.43
2019-02-15T01:50:27.420Z,25.63
2019-02-15T01:52:56.856Z,23.47
2019-02-15T01:55:26.251Z,26.80
2019-02-15T01:57:55.644Z,23.97
2019-02-15T02:00:27.486Z,22.03
2019-02-15T02:02:56.822Z,25.33
2019-02-15T02:05:26.164Z,21.80
2019-02-15T02:07:55.600Z,22.07
2019-02-15T02:10:24.921Z,25.30
2019-02-15T02:12:54.320Z,21.80
2019-02-15T02:15:23.701Z,23.43
2019-02-15T02:17:53.084Z,22.00
2019-02-15T02:20:22.450Z,20.03
2019-02-15T02:22:51.901Z,21.50
2019-02-15T02:25:21.332Z,27.33
2019-02-15T02:27:50.682Z,21.17
2019-02-15T02:30:20.132Z,20.10
2019-02-15T02:32:49.458Z,20.37
2019-02-15T02:35:18.824Z,20.57
2019-02-15T02:37:48.353Z,22.63
2019-02-15T02:40:17.727Z,18.13
2019-02-15T02:42:47.204Z,18.43
2019-02-15T02:45:16.650Z,17.73
2019-02-15T02:47:46.004Z,17.33
2019-02-15T02:50:15.380Z,17.17
2019-02-15T02:52:44.776Z,16.00
2019-02-15T02:55:14.160Z,17.80
2019-02-15T02:57:43.560Z,18.97
2019-02-15T03:00:13.237Z,17.33
2019-02-15T03:02:42.558Z,18.37
2019-02-15T03:05:11.911Z,17.87
2019-02-15T03:07:41.284Z,18.40
2019-02-15T03:10:10.626Z,18.93
2019-02-15T03:12:40.055Z,16.53
2019-02-15T03:15:09.401Z,15.50
2019-02-15T03:17:38.804Z,14.03
2019-02-15T03:20:08.366Z,13.77
2019-02-15T03:22:37.809Z,11.67
2019-02-15T03:25:07.555Z,12.13
2019-02-15T03:27:36.920Z,15.17
2019-02-15T03:30:06.964Z,12.53
2019-02-15T03:32:36.322Z,13.03
2019-02-15T03:35:06.243Z,13.70
2019-02-15T03:37:53.617Z,14.67
2019-02-15T03:40:26.301Z,15.53
2019-02-15T03:42:55.696Z,16.30
2019-02-15T03:45:25.052Z,17.30
2019-02-15T03:47:54.404Z,15.50
2019-02-15T03:50:23.794Z,16.23
2019-02-15T03:52:53.134Z,15.37
2019-02-15T03:55:22.512Z,16.40
2019-02-15T03:57:51.915Z,16.13
2019-02-15T04:00:21.293Z,15.47
2019-02-15T04:02:50.747Z,15.40
2019-02-15T04:05:20.127Z,14.37
2019-02-15T04:07:49.561Z,13.90
2019-02-15T04:10:18.910Z,14.33
2019-02-15T04:12:48.280Z,14.03
2019-02-15T04:15:17.631Z,13.33
2019-02-15T04:17:46.998Z,14.30
2019-02-15T04:20:16.418Z,14.27
2019-02-15T04:22:45.843Z,13.33
2019-02-15T04:25:15.207Z,14.80
2019-02-15T04:27:44.640Z,14.67
2019-02-15T04:30:13.995Z,13.90
2019-02-15T04:32:43.418Z,15.33
2019-02-15T04:35:12.758Z,15.33
2019-02-15T04:37:42.114Z,18.40
2019-02-15T04:40:11.495Z,14.43
2019-02-15T04:42:40.878Z,14.60
2019-02-15T04:45:10.450Z,16.13
2019-02-15T04:47:39.914Z,16.27
2019-02-15T04:50:10.273Z,15.07
2019-02-15T04:52:39.720Z,19.40
2019-02-15T04:55:09.238Z,15.90
2019-02-15T04:57:38.629Z,16.00
2019-02-15T05:00:08.341Z,17.30
2019-02-15T05:02:37.782Z,17.80
2019-02-15T05:05:07.175Z,17.07
2019-02-15T05:07:36.723Z,16.93
2019-02-15T05:10:06.341Z,16.90
2019-02-15T05:12:35.699Z,17.97
2019-02-15T05:15:05.542Z,19.47
2019-02-15T05:17:34.993Z,23.67
2019-02-15T05:20:04.538Z,40.03
2019-02-15T05:22:33.923Z,37.13
2019-02-15T05:25:03.378Z,38.77
2019-02-15T05:27:32.696Z,36.37
2019-02-15T05:30:02.094Z,35.80
2019-02-15T05:32:31.508Z,31.97
2019-02-15T05:35:00.913Z,27.60
2019-02-15T05:37:30.301Z,23.93
2019-02-15T05:39:59.674Z,23.57
2019-02-15T05:42:29.026Z,21.80
2019-02-15T05:45:03.768Z,24.07
2019-02-15T05:47:29.833Z,19.07
2019-02-15T05:49:59.159Z,19.40
2019-02-15T05:52:28.608Z,18.00
2019-02-15T05:54:57.969Z,19.93
2019-02-15T05:57:27.395Z,21.57
2019-02-15T05:59:56.841Z,19.20
2019-02-15T06:02:26.186Z,21.00
2019-02-15T06:04:55.624Z,22.60
2019-02-15T06:07:25.036Z,23.43
2019-02-15T06:09:54.386Z,22.27
2019-02-15T06:12:24.146Z,22.40
2019-02-15T06:14:53.592Z,20.27
2019-02-15T06:17:22.942Z,29.37
2019-02-15T06:19:52.405Z,27.30
2019-02-15T06:22:21.825Z,25.80
2019-02-15T06:24:51.246Z,28.00
2019-02-15T06:27:20.725Z,27.87
2019-02-15T06:29:50.147Z,26.80
2019-02-15T06:32:19.492Z,22.30
2019-02-15T06:34:48.897Z,16.80
2019-02-15T06:37:18.341Z,9.60
2019-02-15T06:39:47.754Z,12.97
2019-02-15T06:42:17.164Z,10.00
2019-02-15T06:44:46.564Z,9.73
2019-02-15T06:47:15.910Z,12.23
2019-02-15T06:49:45.252Z,11.73
2019-02-15T06:52:14.703Z,10.67
2019-02-15T06:54:44.087Z,9.63
2019-02-15T06:57:13.454Z,11.13
2019-02-15T06:59:50.883Z,9.10
2019-02-15T07:02:25.932Z,7.63
2019-02-15T07:05:04.400Z,7.50
2019-02-15T07:07:33.831Z,6.67
2019-02-15T07:10:03.253Z,8.37
2019-02-15T07:12:32.648Z,8.07
2019-02-15T07:15:01.997Z,8.47
2019-02-15T07:17:31.420Z,9.37
2019-02-15T07:20:00.825Z,8.57
2019-02-15T07:22:30.313Z,7.67
2019-02-15T07:24:59.660Z,10.03
2019-02-15T07:27:29.065Z,9.33
2019-02-15T07:29:58.441Z,7.67
2019-02-15T07:32:29.373Z,6.73
2019-02-15T07:34:58.840Z,6.47
2019-02-15T07:37:28.220Z,5.60
2019-02-15T07:39:57.627Z,6.60
2019-02-15T07:42:27.078Z,9.13
2019-02-15T07:44:56.584Z,8.13
2019-02-15T07:47:25.999Z,9.10
2019-02-15T07:49:55.652Z,7.40
2019-02-15T07:52:25.038Z,17.13
2019-02-15T07:54:54.412Z,5.47
2019-02-15T07:57:24.001Z,4.80
2019-02-15T07:59:53.391Z,6.87
2019-02-15T08:02:22.754Z,6.73
2019-02-15T08:04:52.159Z,5.43
2019-02-15T08:07:21.499Z,4.40
2019-02-15T08:09:50.926Z,5.70
2019-02-15T08:12:20.312Z,3.47
2019-02-15T08:14:49.677Z,3.83
2019-02-15T08:17:19.032Z,3.27
2019-02-15T08:19:48.396Z,5.37
2019-02-15T08:22:17.725Z,4.67
2019-02-15T08:24:47.065Z,3.13
2019-02-15T08:27:16.439Z,3.70
2019-02-15T08:29:45.748Z,3.40
2019-02-15T08:32:15.144Z,4.20
2019-02-15T08:34:44.493Z,3.40
2019-02-15T08:37:14.003Z,4.67
2019-02-15T08:39:43.430Z,5.23
2019-02-15T08:42:12.788Z,3.07
2019-02-15T08:44:42.235Z,3.33
2019-02-15T08:47:11.641Z,3.50
2019-02-15T08:49:40.982Z,3.20
2019-02-15T08:52:10.338Z,4.20
2019-02-15T08:54:39.785Z,3.97
2019-02-15T08:57:09.142Z,3.47
2019-02-15T08:59:39.378Z,3.53
2019-02-15T09:02:20.912Z,3.60
2019-02-15T09:04:50.254Z,4.10
2019-02-15T09:07:19.582Z,4.37
2019-02-15T09:09:49.225Z,5.70
2019-02-15T09:12:18.601Z,6.40
2019-02-15T09:14:48.071Z,9.27
2019-02-15T09:17:17.444Z,9.47
2019-02-15T09:19:47.056Z,5.90
2019-02-15T09:22:16.740Z,5.13
2019-02-15T09:24:46.157Z,5.07
2019-02-15T09:27:24.805Z,2.67
2019-02-15T09:29:54.119Z,5.57
2019-02-15T09:32:23.607Z,5.23
2019-02-15T09:34:52.938Z,5.47
2019-02-15T09:37:22.423Z,4.97
2019-02-15T09:39:51.801Z,6.40
2019-02-15T09:42:21.381Z,7.20
2019-02-15T09:44:51.102Z,9.90
2019-02-15T09:47:20.918Z,3.17
2019-02-15T09:49:50.302Z,2.50
2019-02-15T09:52:19.793Z,5.37
2019-02-15T09:54:49.255Z,4.27
2019-02-15T09:57:18.891Z,4.00
2019-02-15T09:59:48.359Z,2.80
2019-02-15T10:02:17.683Z,6.73
2019-02-15T10:04:47.053Z,4.63
2019-02-15T10:07:17.032Z,2.67
2019-02-15T10:09:46.362Z,4.10
2019-02-15T10:12:15.840Z,6.67
2019-02-15T10:14:45.273Z,4.97
2019-02-15T10:17:14.686Z,3.43
2019-02-15T10:19:44.043Z,4.40
2019-02-15T10:22:13.611Z,5.60
2019-02-15T10:24:43.086Z,5.07
2019-02-15T10:27:12.481Z,4.57
2019-02-15T10:29:42.015Z,2.77
2019-02-15T10:32:11.319Z,6.53
2019-02-15T10:34:40.808Z,7.00
2019-02-15T10:37:10.329Z,16.67
2019-02-15T10:39:39.691Z,4.00
2019-02-15T10:42:09.145Z,3.73
2019-02-15T10:44:38.660Z,3.07
2019-02-15T10:47:13.971Z,2.57
2019-02-15T10:49:39.199Z,3.90
2019-02-15T10:52:08.685Z,4.90
2019-02-15T10:54:38.123Z,3.07
2019-02-15T10:57:07.468Z,3.00
2019-02-15T10:59:36.936Z,3.07
2019-02-15T11:02:06.323Z,4.47
2019-02-15T11:04:35.662Z,4.40
2019-02-15T11:07:05.135Z,6.90
2019-02-15T11:09:34.492Z,5.27
2019-02-15T11:12:03.969Z,4.57
2019-02-15T11:14:33.346Z,7.13
2019-02-15T11:17:03.272Z,6.33
2019-02-15T11:19:32.837Z,5.10
2019-02-15T11:22:02.212Z,6.17
2019-02-15T11:24:32.495Z,6.17
2019-02-15T11:27:01.897Z,6.63
2019-02-15T11:29:31.219Z,4.83
2019-02-15T11:32:00.539Z,8.97
2019-02-15T11:34:29.964Z,4.97
2019-02-15T11:36:59.353Z,4.40
2019-02-15T11:39:28.775Z,7.07
2019-02-15T11:41:58.128Z,8.43
2019-02-15T11:44:27.465Z,6.87
2019-02-15T11:46:57.004Z,7.57
2019-02-15T11:49:26.406Z,7.67
2019-02-15T11:51:55.778Z,6.73
2019-02-15T11:54:25.137Z,4.23
2019-02-15T11:56:54.525Z,6.77
2019-02-15T11:59:23.933Z,6.90
2019-02-15T12:01:53.286Z,4.70
2019-02-15T12:04:22.671Z,5.23
2019-02-15T12:06:51.988Z,4.97
2019-02-15T12:09:21.331Z,3.93
2019-02-15T12:11:50.764Z,4.10
2019-02-15T12:14:20.120Z,4.10
2019-02-15T12:16:49.475Z,4.23
2019-02-15T12:19:18.866Z,4.63
2019-02-15T12:21:48.271Z,5.00
2019-02-15T12:24:17.681Z,7.80
2019-02-15T12:26:47.115Z,4.20
2019-02-15T12:29:16.514Z,6.87
2019-02-15T12:31:45.832Z,4.20
2019-02-15T12:34:15.242Z,7.30
2019-02-15T12:36:44.570Z,4.33
2019-02-15T12:39:14.428Z,3.50
2019-02-15T12:41:43.839Z,7.33
2019-02-15T12:44:13.238Z,3.73
2019-02-15T12:46:42.704Z,4.60
2019-02-15T12:49:12.095Z,6.87
2019-02-15T12:51:42.091Z,5.43
2019-02-15T12:54:11.452Z,5.17
2019-02-15T12:56:40.926Z,5.00
2019-02-15T12:59:10.345Z,5.73
2019-02-15T13:01:39.799Z,8.07
2019-02-15T13:04:09.198Z,4.50
2019-02-15T13:06:38.561Z,5.80
2019-02-15T13:09:08.072Z,4.67
2019-02-15T13:11:37.553Z,6.87
2019-02-15T13:14:06.966Z,7.37
2019-02-15T13:16:36.350Z,5.63
2019-02-15T13:19:05.793Z,4.70
2019-02-15T13:21:35.093Z,3.93
2019-02-15T13:24:04.502Z,3.77
2019-02-15T13:26:33.956Z,4.67
2019-02-15T13:29:03.551Z,5.13
2019-02-15T13:31:32.970Z,5.40
2019-02-15T13:34:02.402Z,5.50
2019-02-15T13:36:31.800Z,5.30
2019-02-15T13:39:01.092Z,3.40
2019-02-15T13:41:30.545Z,3.57
2019-02-15T13:43:59.881Z,3.10
2019-02-15T13:46:29.299Z,3.97
2019-02-15T13:48:58.631Z,3.93
2019-02-15T13:51:27.968Z,3.40
2019-02-15T13:53:57.896Z,3.17
2019-02-15T13:56:27.225Z,3.13
2019-02-15T13:58:57.000Z,4.00
2019-02-15T14:01:26.419Z,3.83
2019-02-15T14:03:55.785Z,3.23
2019-02-15T14:06:25.266Z,3.70
2019-02-15T14:08:54.634Z,3.60
2019-02-15T14:11:24.029Z,4.70
2019-02-15T14:13:53.387Z,4.23
2019-02-15T14:16:23.871Z,5.90
2019-02-15T14:18:53.389Z,4.40
2019-02-15T14:21:22.952Z,5.70
2019-02-15T14:23:52.267Z,4.43
2019-02-15T14:26:21.579Z,3.57
2019-02-15T14:28:50.930Z,4.57
2019-02-15T14:31:20.378Z,4.37
2019-02-15T14:33:49.864Z,3.90
2019-02-15T14:36:19.289Z,6.33
2019-02-15T14:38:50.190Z,5.33
2019-02-15T14:41:19.540Z,5.07
2019-02-15T14:43:48.905Z,7.03
2019-02-15T14:46:18.295Z,7.37
2019-02-15T14:48:47.689Z,7.60
2019-02-15T14:51:17.073Z,10.77
2019-02-15T14:53:46.461Z,12.73
2019-02-15T14:56:15.822Z,6.87
2019-02-15T14:58:45.191Z,7.63
2019-02-15T15:01:14.592Z,10.10
2019-02-15T15:03:44.092Z,5.53
2019-02-15T15:06:13.499Z,4.80
2019-02-15T15:08:42.987Z,5.73
2019-02-15T15:11:12.325Z,8.07
2019-02-15T15:13:41.674Z,5.63
2019-02-15T15:16:11.012Z,7.50
2019-02-15T15:18:40.357Z,7.90
2019-02-15T15:21:09.713Z,9.70
2019-02-15T15:23:39.133Z,6.57
2019-02-15T15:26:11.855Z,5.87
2019-02-15T15:28:39.637Z,7.80
2019-02-15T15:31:11.338Z,8.30
2019-02-15T15:33:40.217Z,7.50
2019-02-15T15:36:09.644Z,4.80
2019-02-15T15:38:39.095Z,7.30
2019-02-15T15:41:08.526Z,8.13
2019-02-15T15:43:37.964Z,7.23
2019-02-15T15:46:07.368Z,8.07
2019-02-15T15:48:36.722Z,6.27
2019-02-15T15:51:06.266Z,6.27
2019-02-15T15:53:35.705Z,8.00
2019-02-15T15:56:05.131Z,8.50
2019-02-15T15:58:34.550Z,10.40
2019-02-15T16:01:03.909Z,10.60
2019-02-15T16:03:33.260Z,8.80
2019-02-15T16:06:02.745Z,15.73
2019-02-15T16:08:32.188Z,10.73
2019-02-15T16:11:01.585Z,9.70
2019-02-15T16:13:30.938Z,5.67
2019-02-15T16:16:00.321Z,10.30
2019-02-15T16:18:34.234Z,7.83
2019-02-15T16:21:00.806Z,5.57
2019-02-15T16:23:30.240Z,5.70
2019-02-15T16:25:59.618Z,5.97
2019-02-15T16:28:29.036Z,7.13
2019-02-15T16:30:58.384Z,8.33
2019-02-15T16:33:27.775Z,9.10
2019-02-15T16:35:57.119Z,7.10
2019-02-15T16:38:26.485Z,6.33
2019-02-15T16:40:55.871Z,6.90
2019-02-15T16:43:25.300Z,6.70
2019-02-15T16:45:54.711Z,11.77
2019-02-15T16:48:24.083Z,8.10
2019-02-15T16:50:53.489Z,9.00
2019-02-15T16:53:22.881Z,9.40
2019-02-15T16:55:52.435Z,16.03
2019-02-15T16:58:21.894Z,15.50
2019-02-15T17:00:51.322Z,12.03
2019-02-15T17:03:20.639Z,14.43
2019-02-15T17:05:49.940Z,11.83
2019-02-15T17:08:19.261Z,12.10
2019-02-15T17:10:48.664Z,10.57
2019-02-15T17:13:18.075Z,10.23
2019-02-15T17:15:47.747Z,8.20
2019-02-15T17:18:17.131Z,9.27
2019-02-15T17:20:46.597Z,11.17
2019-02-15T17:23:16.172Z,8.67
2019-02-15T17:25:48.304Z,7.53
2019-02-15T17:28:17.705Z,8.27
2019-02-15T17:30:47.555Z,12.57
2019-02-15T17:33:16.909Z,12.73
2019-02-15T17:35:47.542Z,37.30
2019-02-15T17:38:16.858Z,10.17
2019-02-15T17:40:46.243Z,9.37
2019-02-15T17:43:15.676Z,9.27
2019-02-15T17:45:45.069Z,9.07
2019-02-15T17:48:14.541Z,8.13
2019-02-15T17:50:43.891Z,9.60
2019-02-15T17:53:13.284Z,9.03
2019-02-15T17:55:42.699Z,7.10
2019-02-15T17:58:12.148Z,9.73
2019-02-15T18:00:41.584Z,10.23
2019-02-15T18:03:11.370Z,17.67
2019-02-15T18:05:41.046Z,8.60
2019-02-15T18:08:10.416Z,9.97
2019-02-15T18:10:39.816Z,8.37
2019-02-15T18:13:09.343Z,9.63
2019-02-15T18:15:39.237Z,13.33
2019-02-15T18:18:08.752Z,15.93
2019-02-15T18:20:38.191Z,9.70
2019-02-15T18:23:07.569Z,11.70
2019-02-15T18:25:36.986Z,10.37
2019-02-15T18:28:06.402Z,11.97
2019-02-15T18:30:35.824Z,10.17
2019-02-15T18:33:05.465Z,9.97
2019-02-15T18:35:35.276Z,10.10
2019-02-15T18:38:05.039Z,9.10
2019-02-15T18:40:34.432Z,11.77
2019-02-15T18:43:03.823Z,7.17
2019-02-15T18:45:33.309Z,11.30
2019-02-15T18:48:03.864Z,8.27
2019-02-15T18:50:33.238Z,11.77
2019-02-15T18:53:02.664Z,12.57
2019-02-15T18:55:32.046Z,8.73
2019-02-15T18:58:01.373Z,8.03
2019-02-15T19:00:30.764Z,7.60
2019-02-15T19:03:00.299Z,6.53
2019-02-15T19:05:29.768Z,12.03
2019-02-15T19:07:59.243Z,8.33
2019-02-15T19:10:28.580Z,7.83
2019-02-15T19:12:58.146Z,7.23
2019-02-15T19:15:27.570Z,12.77
2019-02-15T19:17:56.927Z,12.37
2019-02-15T19:20:26.394Z,9.67
2019-02-15T19:22:55.958Z,12.90
2019-02-15T19:25:25.421Z,9.50
2019-02-15T19:27:54.757Z,9.93
2019-02-15T19:30:25.027Z,9.80
2019-02-15T19:32:54.439Z,10.90
2019-02-15T19:35:23.813Z,8.83
2019-02-15T19:37:53.217Z,7.53
2019-02-15T19:40:22.615Z,8.00
2019-02-15T19:42:53.458Z,9.23
2019-02-15T19:45:22.803Z,9.40
2019-02-15T19:47:52.190Z,7.30
2019-02-15T19:50:21.508Z,9.40
2019-02-15T19:52:50.882Z,30.03
2019-02-15T19:55:20.255Z,14.50
2019-02-15T19:57:51.051Z,12.70
2019-02-15T20:00:20.391Z,11.90
2019-02-15T20:02:49.742Z,9.80
2019-02-15T20:05:19.168Z,8.40
2019-02-15T20:07:48.529Z,7.67
2019-02-15T20:10:19.375Z,9.57
2019-02-15T20:12:48.737Z,10.93
2019-02-15T20:15:18.242Z,11.27
2019-02-15T20:17:47.617Z,10.63
2019-02-15T20:20:17.032Z,8.30
2019-02-15T20:22:47.138Z,9.33
2019-02-15T20:25:16.514Z,8.00
2019-02-15T20:27:45.929Z,7.13
2019-02-15T20:30:17.876Z,8.37
2019-02-15T20:32:47.372Z,9.67
2019-02-15T20:35:16.719Z,11.57
2019-02-15T20:37:46.272Z,12.30
2019-02-15T20:40:15.621Z,14.20
2019-02-15T20:42:47.310Z,12.70
2019-02-15T20:45:18.282Z,10.57
2019-02-15T20:47:47.628Z,12.23
2019-02-15T20:50:17.279Z,12.00
2019-02-15T20:52:46.602Z,10.93
2019-02-15T20:55:16.235Z,12.33
2019-02-15T20:57:45.960Z,11.53
2019-02-15T21:00:20.711Z,18.13
2019-02-15T21:02:50.085Z,13.37
2019-02-15T21:05:19.405Z,12.87
2019-02-15T21:07:48.756Z,13.20
2019-02-15T21:10:18.212Z,10.43
2019-02-15T21:12:47.858Z,11.77
2019-02-15T21:15:17.304Z,11.40
2019-02-15T21:17:46.700Z,8.80
2019-02-15T21:20:16.088Z,15.60
2019-02-15T21:22:45.521Z,11.20
2019-02-15T21:25:15.008Z,9.80
2019-02-15T21:27:44.347Z,9.80
2019-02-15T21:30:14.485Z,8.67
2019-02-15T21:32:44.041Z,7.37
2019-02-15T21:35:13.530Z,7.33
2019-02-15T21:37:45.341Z,8.50
2019-02-15T21:40:15.658Z,7.87
2019-02-15T21:42:45.158Z,10.33
2019-02-15T21:45:14.781Z,6.90
2019-02-15T21:47:44.245Z,9.00
2019-02-15T21:50:32.291Z,8.20
2019-02-15T21:53:10.422Z,9.57
2019-02-15T21:55:42.213Z,8.27
2019-02-15T21:58:20.409Z,9.87
2019-02-15T22:00:50.146Z,6.77
2019-02-15T22:03:19.575Z,11.83
2019-02-15T22:05:49.023Z,11.30
2019-02-15T22:08:18.626Z,7.83
2019-02-15T22:10:48.039Z,8.70
2019-02-15T22:13:20.385Z,5.77
2019-02-15T22:15:52.828Z,8.13
2019-02-15T22:18:22.153Z,7.77
2019-02-15T22:20:51.510Z,10.47
2019-02-15T22:23:20.855Z,8.57
2019-02-15T22:25:50.219Z,6.77
2019-02-15T22:28:19.546Z,8.10
2019-02-15T22:30:48.873Z,6.53
2019-02-15T22:33:18.205Z,8.20
2019-02-15T22:35:47.601Z,5.60
2019-02-15T22:38:16.928Z,6.43
2019-02-15T22:40:46.985Z,8.57
2019-02-15T22:43:21.794Z,6.37
2019-02-15T22:45:51.100Z,6.77
2019-02-15T22:48:20.503Z,7.67
2019-02-15T22:50:49.883Z,7.20
2019-02-15T22:53:19.263Z,7.77
2019-02-15T22:55:48.599Z,7.57
2019-02-15T22:58:18.348Z,10.00
2019-02-15T23:00:58.397Z,7.27
2019-02-15T23:03:27.999Z,7.73
2019-02-15T23:05:57.439Z,7.53
2019-02-15T23:08:26.799Z,7.47
2019-02-15T23:10:56.144Z,11.93
2019-02-15T23:13:25.492Z,7.07
2019-02-15T23:15:54.787Z,7.00
2019-02-15T23:18:24.105Z,8.27
2019-02-15T23:20:53.466Z,6.30
2019-02-15T23:23:22.792Z,7.47
2019-02-15T23:25:52.239Z,8.77
2019-02-15T23:28:21.611Z,10.67
2019-02-15T23:30:50.971Z,11.20
2019-02-15T23:33:20.349Z,9.73
2019-02-15T23:35:49.690Z,11.60
2019-02-15T23:38:19.052Z,12.23
2019-02-15T23:40:48.396Z,10.67
2019-02-15T23:43:17.784Z,9.90
2019-02-15T23:45:47.229Z,12.93
2019-02-15T23:48:16.628Z,12.67
2019-02-15T23:50:54.199Z,11.23
2019-02-15T23:53:17.071Z,10.87
2019-02-15T23:55:46.476Z,12.50
2019-02-15T23:58:15.825Z,14.43
